createdAt,value
2023-02-26T00:01:58.370Z,-1.20
2023-02-26T00:04:26.674Z,-1.20
2023-02-26T00:06:57.164Z,-1.20
2023-02-26T00:09:29.985Z,-1.00
2023-02-26T00:11:58.527Z,-1.10
2023-02-26T00:14:32.320Z,-1.20
2023-02-26T00:17:21.822Z,-1.20
2023-02-26T00:19:50.595Z,-1.20
2023-02-26T00:22:19.722Z,-1.40
2023-02-26T00:24:48.028Z,-1.40
2023-02-26T00:27:16.488Z,-1.40
2023-02-26T00:29:46.914Z,-1.60
2023-02-26T00:32:18.220Z,-1.70
2023-02-26T00:34:47.936Z,-1.50
2023-02-26T00:37:29.684Z,-1.30
2023-02-26T00:40:10.031Z,-1.50
2023-02-26T00:42:39.140Z,-1.60
2023-02-26T00:45:10.607Z,-1.70
2023-02-26T00:47:46.001Z,-1.70
2023-02-26T00:50:18.867Z,-1.80
2023-02-26T00:52:58.553Z,-1.70
2023-02-26T00:55:28.499Z,-1.70
2023-02-26T00:57:59.691Z,-1.60
2023-02-26T01:00:29.564Z,-1.60
2023-02-26T01:02:58.756Z,-1.50
2023-02-26T01:05:27.707Z,-1.60
2023-02-26T01:08:03.144Z,-1.40
2023-02-26T01:10:32.421Z,-1.50
2023-02-26T01:13:01.632Z,-1.50
2023-02-26T01:15:32.827Z,-1.50
2023-02-26T01:18:06.686Z,-1.30
2023-02-26T01:20:42.323Z,-1.30
2023-02-26T01:23:21.658Z,-1.20
2023-02-26T01:25:55.093Z,-1.20
2023-02-26T01:28:24.425Z,-1.20
2023-02-26T01:30:57.034Z,-1.10
2023-02-26T01:33:30.380Z,-1.20
2023-02-26T01:36:08.683Z,-1.20
2023-02-26T01:38:43.782Z,-1.20
2023-02-26T01:41:31.820Z,-1.30
2023-02-26T01:44:15.707Z,-1.30
2023-02-26T01:47:07.319Z,-1.20
2023-02-26T01:49:36.256Z,-1.20
2023-02-26T01:52:07.139Z,-1.20
2023-02-26T01:54:37.096Z,-1.30
2023-02-26T01:57:09.266Z,-1.30
2023-02-26T01:59:40.722Z,-1.20
2023-02-26T02:02:12.009Z,-1.20
2023-02-26T02:04:42.137Z,-1.30
2023-02-26T02:07:10.608Z,-1.30
2023-02-26T02:09:39.101Z,-1.30
2023-02-26T02:12:22.175Z,-1.30
2023-02-26T02:15:01.223Z,-1.30
2023-02-26T02:17:39.614Z,-1.20
2023-02-26T02:20:38.436Z,-1.20
2023-02-26T02:23:14.567Z,-1.20
2023-02-26T02:26:16.200Z,-1.30
2023-02-26T02:29:02.412Z,-1.30
2023-02-26T02:31:36.938Z,-1.20
2023-02-26T02:34:14.066Z,-1.20
2023-02-26T02:36:48.200Z,-1.30
2023-02-26T02:39:21.015Z,-1.30
2023-02-26T02:41:55.094Z,-1.30
2023-02-26T02:44:27.251Z,-1.30
2023-02-26T02:46:59.502Z,-1.20
2023-02-26T02:49:33.571Z,-1.30
2023-02-26T02:52:11.062Z,-1.20
2023-02-26T02:54:45.615Z,-1.20
2023-02-26T02:57:24.163Z,-1.10
2023-02-26T02:59:57.331Z,-1.10
2023-02-26T03:02:33.458Z,-1.10
2023-02-26T03:05:02.139Z,-1.10
2023-02-26T03:07:32.276Z,-1.10
2023-02-26T03:10:00.838Z,-1.00
2023-02-26T03:12:33.167Z,-1.10
2023-02-26T03:15:02.543Z,-1.10
2023-02-26T03:17:37.595Z,-1.10
2023-02-26T03:20:17.451Z,-1.10
2023-02-26T03:22:55.077Z,-1.10
2023-02-26T03:25:27.947Z,-1.20
2023-02-26T03:28:03.442Z,-1.20
2023-02-26T03:30:39.539Z,-1.30
2023-02-26T03:33:15.165Z,-1.30
2023-02-26T03:35:51.055Z,-1.30
2023-02-26T03:38:36.786Z,-1.30
2023-02-26T03:41:09.753Z,-1.30
2023-02-26T03:43:43.462Z,-1.40
2023-02-26T03:46:16.442Z,-1.50
2023-02-26T03:48:48.130Z,-1.50
2023-02-26T03:51:17.327Z,-1.40
2023-02-26T03:53:51.511Z,-1.50
2023-02-26T03:56:24.285Z,-1.50
2023-02-26T03:58:53.007Z,-1.50
2023-02-26T04:01:32.276Z,-1.40
2023-02-26T04:04:05.702Z,-1.30
2023-02-26T04:06:35.252Z,-1.40
2023-02-26T04:09:04.757Z,-1.30
2023-02-26T04:11:34.082Z,-1.30
2023-02-26T04:14:02.302Z,-1.40
2023-02-26T04:16:31.376Z,-1.40
2023-02-26T04:19:01.295Z,-1.40
2023-02-26T04:21:29.528Z,-1.50
2023-02-26T04:23:57.680Z,-1.50
2023-02-26T04:26:26.207Z,-1.60
2023-02-26T04:28:54.616Z,-1.70
2023-02-26T04:31:23.010Z,-1.80
2023-02-26T04:33:54.126Z,-1.90
2023-02-26T04:36:24.217Z,-1.90
2023-02-26T04:38:52.619Z,-1.90
2023-02-26T04:41:20.735Z,-1.70
2023-02-26T04:43:49.019Z,-1.70
2023-02-26T04:46:17.418Z,-1.60
2023-02-26T04:48:45.832Z,-1.50
2023-02-26T04:51:14.113Z,-1.50
2023-02-26T04:53:43.611Z,-1.50
2023-02-26T04:56:11.894Z,-1.50
2023-02-26T04:58:40.356Z,-1.60
2023-02-26T05:01:08.568Z,-1.50
2023-02-26T05:03:36.815Z,-1.60
2023-02-26T05:06:05.423Z,-1.50
2023-02-26T05:08:33.525Z,-1.50
2023-02-26T05:11:03.145Z,-1.50
2023-02-26T05:13:31.937Z,-1.50
2023-02-26T05:16:00.368Z,-1.50
2023-02-26T05:18:28.879Z,-1.30
2023-02-26T05:20:58.058Z,-1.30
2023-02-26T05:23:27.026Z,-1.30
2023-02-26T05:25:57.439Z,-1.30
2023-02-26T05:28:27.515Z,-1.40
2023-02-26T05:30:58.298Z,-1.30
2023-02-26T05:33:27.078Z,-1.30
2023-02-26T05:35:55.542Z,-1.30
2023-02-26T05:38:24.899Z,-1.50
2023-02-26T05:40:57.796Z,-1.40
2023-02-26T05:43:28.040Z,-1.40
2023-02-26T05:46:00.121Z,-1.40
2023-02-26T05:48:28.458Z,-1.40
2023-02-26T05:50:58.518Z,-1.30
2023-02-26T05:53:26.914Z,-1.40
2023-02-26T05:55:55.705Z,-1.40
2023-02-26T05:58:24.145Z,-1.40
2023-02-26T06:00:53.734Z,-1.50
2023-02-26T06:03:21.988Z,-1.50
2023-02-26T06:05:50.275Z,-1.50
2023-02-26T06:08:18.601Z,-1.40
2023-02-26T06:10:47.326Z,-1.40
2023-02-26T06:13:15.555Z,-1.40
2023-02-26T06:15:43.828Z,-1.50
2023-02-26T06:18:13.573Z,-1.50
2023-02-26T06:20:41.816Z,-1.50
2023-02-26T06:23:10.316Z,-1.50
2023-02-26T06:25:38.639Z,-1.40
2023-02-26T06:28:06.928Z,-1.30
2023-02-26T06:30:35.498Z,-1.40
2023-02-26T06:33:04.117Z,-1.40
2023-02-26T06:35:33.698Z,-1.40
2023-02-26T06:38:01.908Z,-1.30
2023-02-26T06:40:30.660Z,-1.30
2023-02-26T06:42:58.941Z,-1.20
2023-02-26T06:45:27.413Z,-1.20
2023-02-26T06:47:55.768Z,-1.20
2023-02-26T06:50:24.277Z,-1.20
2023-02-26T06:52:54.595Z,-1.20
2023-02-26T06:55:27.185Z,-1.20
2023-02-26T06:57:55.603Z,-1.10
2023-02-26T07:00:27.273Z,-1.30
2023-02-26T07:02:55.432Z,-1.20
2023-02-26T07:05:23.818Z,-1.10
2023-02-26T07:07:53.324Z,-1.10
2023-02-26T07:10:22.454Z,-1.10
2023-02-26T07:12:51.096Z,-1.10
2023-02-26T07:15:19.555Z,-1.00
2023-02-26T07:17:47.877Z,-1.00
2023-02-26T07:20:16.451Z,-1.00
2023-02-26T07:22:45.518Z,-1.00
2023-02-26T07:25:15.082Z,-1.00
2023-02-26T07:27:43.945Z,-1.00
2023-02-26T07:30:13.501Z,-0.90
2023-02-26T07:32:41.677Z,-0.80
2023-02-26T07:35:10.776Z,-0.90
2023-02-26T07:37:39.500Z,-0.80
2023-02-26T07:40:09.494Z,-0.70
2023-02-26T07:42:39.208Z,-0.70
2023-02-26T07:45:09.193Z,-0.60
2023-02-26T07:47:37.732Z,-0.50
2023-02-26T07:50:07.391Z,-0.70
2023-02-26T07:52:35.674Z,-0.50
2023-02-26T07:55:03.906Z,-0.60
2023-02-26T07:57:32.923Z,-0.60
2023-02-26T08:00:04.626Z,-0.60
2023-02-26T08:02:33.205Z,-0.60
2023-02-26T08:05:01.992Z,-0.70
2023-02-26T08:07:30.176Z,-0.80
2023-02-26T08:09:58.425Z,-0.70
2023-02-26T08:12:26.816Z,-0.80
2023-02-26T08:14:55.011Z,-0.70
2023-02-26T08:17:24.657Z,-0.50
2023-02-26T08:19:53.737Z,-0.50
2023-02-26T08:22:23.881Z,-0.60
2023-02-26T08:24:52.329Z,-0.60
2023-02-26T08:27:20.682Z,-0.40
2023-02-26T08:29:50.355Z,-0.20
2023-02-26T08:32:22.996Z,-0.20
2023-02-26T08:34:52.676Z,-0.10
2023-02-26T08:37:22.740Z,-0.10
2023-02-26T08:39:51.168Z,0.00
2023-02-26T08:42:20.651Z,0.00
2023-02-26T08:44:48.971Z,0.10
2023-02-26T08:47:28.236Z,0.20
2023-02-26T08:49:58.981Z,0.10
2023-02-26T08:52:27.616Z,0.20
2023-02-26T08:54:55.939Z,0.20
2023-02-26T08:57:24.194Z,0.40
2023-02-26T08:59:52.962Z,0.50
2023-02-26T09:02:21.248Z,0.50
2023-02-26T09:04:49.549Z,0.50
2023-02-26T09:07:19.682Z,0.50
2023-02-26T09:09:48.407Z,0.50
2023-02-26T09:12:17.111Z,0.40
2023-02-26T09:14:45.717Z,0.40
2023-02-26T09:17:13.997Z,0.60
2023-02-26T09:19:42.257Z,0.80
2023-02-26T09:22:10.862Z,0.80
2023-02-26T09:24:40.469Z,0.60
2023-02-26T09:27:08.992Z,0.50
2023-02-26T09:29:37.809Z,0.50
2023-02-26T09:32:08.858Z,0.50
2023-02-26T09:34:37.720Z,0.50
2023-02-26T09:37:07.024Z,0.40
2023-02-26T09:39:36.230Z,0.30
2023-02-26T09:42:14.785Z,0.20
2023-02-26T09:44:43.312Z,0.20
2023-02-26T09:47:18.511Z,0.30
2023-02-26T09:49:53.183Z,0.40
2023-02-26T09:52:27.105Z,0.40
2023-02-26T09:54:59.723Z,0.40
2023-02-26T09:57:33.646Z,0.50
2023-02-26T10:00:03.230Z,0.50
2023-02-26T10:02:41.771Z,0.60
2023-02-26T10:05:21.422Z,0.70
2023-02-26T10:07:58.290Z,0.70
2023-02-26T10:10:36.361Z,0.70
2023-02-26T10:13:09.038Z,0.60
2023-02-26T10:15:41.331Z,0.60
2023-02-26T10:18:13.514Z,0.70
2023-02-26T10:20:52.706Z,1.10
2023-02-26T10:23:26.443Z,1.20
2023-02-26T10:25:59.351Z,1.40
2023-02-26T10:28:48.645Z,1.60
2023-02-26T10:31:26.307Z,1.70
2023-02-26T10:34:08.659Z,1.50
2023-02-26T10:36:45.959Z,1.30
2023-02-26T10:39:24.638Z,1.40
2023-02-26T10:41:53.891Z,1.30
2023-02-26T10:44:31.776Z,1.30
2023-02-26T10:47:07.923Z,1.20
2023-02-26T10:49:55.479Z,1.30
2023-02-26T10:52:26.428Z,1.80
2023-02-26T10:55:09.067Z,2.40
2023-02-26T10:57:43.343Z,2.90
2023-02-26T11:00:20.194Z,3.20
2023-02-26T11:02:51.964Z,3.70
2023-02-26T11:05:22.549Z,4.20
2023-02-26T11:07:53.862Z,4.30
2023-02-26T11:10:27.201Z,4.10
2023-02-26T11:12:55.478Z,3.40
2023-02-26T11:15:28.397Z,3.30
2023-02-26T11:17:59.106Z,3.50
2023-02-26T11:20:33.904Z,3.70
2023-02-26T11:23:05.823Z,4.00
2023-02-26T11:25:36.241Z,4.20
2023-02-26T11:28:06.645Z,4.50
2023-02-26T11:30:38.414Z,4.40
2023-02-26T11:33:18.527Z,5.00
2023-02-26T11:35:48.161Z,5.30
2023-02-26T11:38:21.435Z,5.30
2023-02-26T11:40:53.764Z,4.90
2023-02-26T11:43:24.577Z,4.60
2023-02-26T11:45:59.681Z,4.10
2023-02-26T11:48:37.381Z,3.70
2023-02-26T11:51:08.584Z,4.10
2023-02-26T11:53:38.507Z,3.80
2023-02-26T11:56:14.714Z,3.70
2023-02-26T11:58:47.995Z,3.70
2023-02-26T12:01:18.960Z,4.20
2023-02-26T12:03:51.164Z,4.50
2023-02-26T12:06:21.432Z,4.60
2023-02-26T12:08:49.977Z,4.70
2023-02-26T12:11:39.783Z,4.30
2023-02-26T12:14:21.842Z,4.40
2023-02-26T12:17:02.191Z,4.80
2023-02-26T12:19:42.199Z,4.70
2023-02-26T12:22:39.343Z,4.50
2023-02-26T12:25:26.115Z,3.90
2023-02-26T12:28:29.637Z,3.70
2023-02-26T12:31:27.031Z,4.30
2023-02-26T12:34:08.579Z,4.40
2023-02-26T12:36:52.875Z,4.00
2023-02-26T12:39:34.070Z,3.70
2023-02-26T12:42:13.684Z,3.80
2023-02-26T12:45:07.250Z,4.00
2023-02-26T12:47:47.664Z,4.00
2023-02-26T12:50:29.321Z,4.70
2023-02-26T12:53:29.239Z,5.10
2023-02-26T12:56:08.776Z,4.70
2023-02-26T12:58:53.243Z,4.60
2023-02-26T13:01:56.150Z,4.40
2023-02-26T13:04:55.256Z,4.70
2023-02-26T13:07:51.012Z,4.90
2023-02-26T13:10:31.004Z,4.80
2023-02-26T13:13:12.717Z,5.00
2023-02-26T13:15:56.166Z,5.30
2023-02-26T13:18:38.659Z,4.80
2023-02-26T13:21:12.999Z,5.00
2023-02-26T13:23:49.897Z,5.70
2023-02-26T13:26:21.071Z,5.90
2023-02-26T13:28:53.881Z,5.50
2023-02-26T13:31:28.834Z,5.70
2023-02-26T13:34:02.895Z,6.20
2023-02-26T13:36:34.291Z,6.10
2023-02-26T13:39:23.955Z,5.90
2023-02-26T13:41:59.956Z,5.30
2023-02-26T13:44:39.404Z,4.80
2023-02-26T13:47:35.168Z,4.40
2023-02-26T13:50:20.954Z,4.40
2023-02-26T13:52:54.670Z,4.60
2023-02-26T13:55:45.531Z,5.20
2023-02-26T13:58:31.562Z,5.10
2023-02-26T14:01:06.310Z,5.40
2023-02-26T14:03:36.185Z,5.90
2023-02-26T14:06:27.148Z,6.70
2023-02-26T14:08:58.453Z,6.90
2023-02-26T14:11:38.354Z,7.00
2023-02-26T14:14:26.044Z,5.70
2023-02-26T14:17:35.395Z,4.50
2023-02-26T14:20:26.070Z,4.20
2023-02-26T14:23:13.036Z,4.50
2023-02-26T14:25:47.707Z,5.00
2023-02-26T14:28:36.513Z,4.90
2023-02-26T14:31:15.405Z,4.40
2023-02-26T14:33:48.448Z,3.90
2023-02-26T14:36:22.396Z,3.80
2023-02-26T14:38:53.094Z,3.70
2023-02-26T14:41:30.883Z,3.70
2023-02-26T14:44:06.690Z,3.60
2023-02-26T14:46:37.007Z,3.70
2023-02-26T14:49:07.402Z,3.70
2023-02-26T14:51:48.538Z,3.60
2023-02-26T14:54:39.727Z,3.40
2023-02-26T14:57:16.726Z,3.40
2023-02-26T15:00:10.043Z,3.30
2023-02-26T15:02:52.840Z,3.20
2023-02-26T15:05:45.107Z,3.30
2023-02-26T15:08:31.417Z,3.40
2023-02-26T15:11:18.725Z,3.60
2023-02-26T15:14:07.062Z,3.60
2023-02-26T15:16:47.533Z,3.40
2023-02-26T15:19:42.251Z,3.30
2023-02-26T15:22:26.236Z,3.30
2023-02-26T15:24:58.340Z,3.10
2023-02-26T15:27:32.378Z,2.90
2023-02-26T15:30:02.056Z,2.70
2023-02-26T15:32:38.580Z,2.70
2023-02-26T15:35:16.696Z,2.70
2023-02-26T15:37:49.016Z,2.60
2023-02-26T15:40:19.599Z,2.40
2023-02-26T15:42:52.954Z,2.40
2023-02-26T15:45:27.654Z,2.50
2023-02-26T15:48:01.803Z,2.40
2023-02-26T15:50:33.771Z,2.30
2023-02-26T15:53:06.066Z,2.20
2023-02-26T15:55:37.652Z,2.20
2023-02-26T15:58:08.203Z,2.20
2023-02-26T16:00:39.154Z,2.10
2023-02-26T16:03:11.443Z,2.10
2023-02-26T16:05:41.363Z,2.00
2023-02-26T16:08:18.329Z,1.90
2023-02-26T16:10:46.689Z,1.90
2023-02-26T16:13:23.250Z,1.80
2023-02-26T16:15:54.027Z,1.80
2023-02-26T16:18:26.344Z,1.60
2023-02-26T16:20:58.847Z,1.60
2023-02-26T16:23:33.569Z,1.40
2023-02-26T16:26:04.130Z,1.30
2023-02-26T16:28:35.104Z,1.40
2023-02-26T16:31:05.789Z,1.30
2023-02-26T16:33:36.073Z,1.30
2023-02-26T16:36:13.055Z,1.30
2023-02-26T16:38:49.888Z,1.20
2023-02-26T16:41:23.020Z,1.20
2023-02-26T16:43:54.402Z,1.10
2023-02-26T16:46:27.762Z,1.10
2023-02-26T16:49:01.173Z,1.10
2023-02-26T16:51:33.099Z,1.00
2023-02-26T16:54:03.974Z,1.00
2023-02-26T16:56:33.930Z,1.00
2023-02-26T16:59:06.278Z,1.00
2023-02-26T17:01:37.979Z,1.00
2023-02-26T17:04:09.071Z,1.10
2023-02-26T17:06:42.008Z,1.10
2023-02-26T17:09:28.061Z,1.10
2023-02-26T17:12:07.177Z,1.10
2023-02-26T17:14:41.999Z,1.00
2023-02-26T17:17:11.243Z,1.00
2023-02-26T17:19:41.318Z,1.10
2023-02-26T17:22:15.112Z,1.10
2023-02-26T17:24:45.976Z,1.10
2023-02-26T17:27:17.881Z,1.00
2023-02-26T17:29:51.391Z,1.00
2023-02-26T17:32:21.689Z,1.10
2023-02-26T17:34:53.421Z,1.10
2023-02-26T17:37:23.791Z,1.10
2023-02-26T17:39:52.812Z,1.10
2023-02-26T17:42:23.109Z,1.00
2023-02-26T17:44:53.160Z,0.90
2023-02-26T17:47:23.062Z,0.90
2023-02-26T17:49:53.876Z,0.80
2023-02-26T17:52:22.361Z,0.80
2023-02-26T17:54:50.527Z,0.70
2023-02-26T17:57:21.054Z,0.60
2023-02-26T17:59:52.942Z,0.70
2023-02-26T18:02:26.956Z,0.50
2023-02-26T18:04:57.239Z,0.60
2023-02-26T18:07:26.283Z,0.70
2023-02-26T18:09:54.583Z,0.70
2023-02-26T18:12:23.476Z,0.60
2023-02-26T18:14:52.195Z,0.60
2023-02-26T18:17:24.090Z,0.70
2023-02-26T18:19:52.748Z,0.80
2023-02-26T18:22:25.485Z,0.70
2023-02-26T18:24:54.725Z,0.70
2023-02-26T18:27:25.338Z,0.70
2023-02-26T18:29:53.791Z,0.70
2023-02-26T18:32:26.556Z,0.30
2023-02-26T18:34:55.512Z,0.30
2023-02-26T18:37:27.061Z,0.40
2023-02-26T18:39:58.462Z,0.40
2023-02-26T18:42:28.352Z,0.40
2023-02-26T18:44:56.801Z,0.40
2023-02-26T18:47:25.052Z,0.50
2023-02-26T18:49:53.487Z,0.40
2023-02-26T18:52:26.487Z,0.40
2023-02-26T18:54:55.675Z,0.40
2023-02-26T18:57:26.043Z,0.20
2023-02-26T18:59:54.320Z,0.20
2023-02-26T19:02:22.626Z,0.20
2023-02-26T19:04:50.887Z,0.10
2023-02-26T19:07:19.636Z,0.20
2023-02-26T19:09:49.273Z,0.30
2023-02-26T19:12:20.373Z,0.30
2023-02-26T19:14:49.004Z,0.30
2023-02-26T19:17:17.347Z,0.40
2023-02-26T19:19:45.644Z,0.30
2023-02-26T19:22:14.914Z,0.40
2023-02-26T19:24:44.226Z,0.40
2023-02-26T19:27:14.885Z,0.30
2023-02-26T19:29:44.122Z,0.20
2023-02-26T19:32:12.708Z,0.20
2023-02-26T19:34:41.204Z,0.20
2023-02-26T19:37:10.728Z,0.30
2023-02-26T19:39:39.638Z,0.20
2023-02-26T19:42:08.338Z,0.30
2023-02-26T19:44:37.910Z,0.20
2023-02-26T19:47:06.148Z,0.10
2023-02-26T19:49:34.977Z,0.00
2023-02-26T19:52:03.210Z,0.00
2023-02-26T19:54:31.617Z,0.00
2023-02-26T19:56:59.846Z,-0.30
2023-02-26T19:59:28.925Z,-0.30
2023-02-26T20:01:58.906Z,-0.40
2023-02-26T20:04:27.172Z,-0.40
2023-02-26T20:06:55.431Z,-0.60
2023-02-26T20:09:24.178Z,-0.70
2023-02-26T20:11:52.447Z,-0.60
2023-02-26T20:14:20.892Z,-0.40
2023-02-26T20:16:49.106Z,-0.60
2023-02-26T20:19:18.938Z,-0.80
2023-02-26T20:21:49.507Z,-0.90
2023-02-26T20:24:20.061Z,-0.80
2023-02-26T20:26:48.991Z,-0.90
2023-02-26T20:29:18.427Z,-1.00
2023-02-26T20:31:49.430Z,-1.10
2023-02-26T20:34:20.262Z,-1.00
2023-02-26T20:36:50.061Z,-0.90
2023-02-26T20:39:19.447Z,-0.80
2023-02-26T20:41:47.901Z,-0.60
2023-02-26T20:44:16.734Z,-0.60
2023-02-26T20:46:45.235Z,-0.70
2023-02-26T20:49:13.621Z,-0.60
2023-02-26T20:51:43.856Z,-0.70
2023-02-26T20:54:14.749Z,-0.90
2023-02-26T20:56:48.844Z,-1.10
2023-02-26T20:59:17.922Z,-1.20
2023-02-26T21:01:46.606Z,-1.30
2023-02-26T21:04:15.173Z,-1.40
2023-02-26T21:06:45.037Z,-1.50
2023-02-26T21:09:15.736Z,-1.40
2023-02-26T21:11:44.668Z,-1.50
2023-02-26T21:14:13.270Z,-1.40
2023-02-26T21:16:41.650Z,-1.30
2023-02-26T21:19:10.116Z,-1.10
2023-02-26T21:21:38.373Z,-1.00
2023-02-26T21:24:08.818Z,-1.00
2023-02-26T21:26:37.040Z,-0.90
2023-02-26T21:29:05.498Z,-0.90
2023-02-26T21:31:34.022Z,-0.80
2023-02-26T21:34:17.293Z,-1.00
2023-02-26T21:36:51.316Z,-1.10
2023-02-26T21:39:21.365Z,-1.20
2023-02-26T21:41:49.962Z,-1.30
2023-02-26T21:44:18.246Z,-1.40
2023-02-26T21:46:46.477Z,-1.40
2023-02-26T21:49:17.755Z,-1.20
2023-02-26T21:51:46.850Z,-1.10
2023-02-26T21:54:15.438Z,-1.10
2023-02-26T21:56:45.561Z,-1.00
2023-02-26T21:59:13.796Z,-1.00
2023-02-26T22:01:42.015Z,-1.00
2023-02-26T22:04:10.811Z,-1.00
2023-02-26T22:06:39.445Z,-1.00
2023-02-26T22:09:08.374Z,-1.00
2023-02-26T22:11:36.580Z,-1.40
2023-02-26T22:14:06.234Z,-1.30
2023-02-26T22:16:34.738Z,-1.50
2023-02-26T22:19:03.161Z,-1.30
2023-02-26T22:21:31.473Z,-1.40
2023-02-26T22:24:02.102Z,-1.50
2023-02-26T22:26:30.717Z,-1.80
2023-02-26T22:29:01.058Z,-1.90
2023-02-26T22:31:31.964Z,-1.90
2023-02-26T22:34:00.577Z,-1.90
2023-02-26T22:36:31.226Z,-2.10
2023-02-26T22:39:00.313Z,-2.20
2023-02-26T22:41:28.681Z,-2.20
2023-02-26T22:43:56.929Z,-2.10
2023-02-26T22:46:28.340Z,-1.80
2023-02-26T22:48:58.843Z,-1.70
2023-02-26T22:51:28.501Z,-1.60
2023-02-26T22:53:57.642Z,-1.60
2023-02-26T22:56:28.958Z,-1.90
2023-02-26T22:58:57.282Z,-2.10
2023-02-26T23:01:28.784Z,-2.30
2023-02-26T23:03:59.442Z,-2.30
2023-02-26T23:06:27.937Z,-2.40
2023-02-26T23:08:56.212Z,-2.50
2023-02-26T23:11:25.222Z,-2.50
2023-02-26T23:13:53.863Z,-2.40
2023-02-26T23:16:22.499Z,-2.30
2023-02-26T23:18:50.672Z,-2.30
2023-02-26T23:21:21.024Z,-2.40
2023-02-26T23:23:50.311Z,-2.40
2023-02-26T23:26:19.134Z,-2.50
2023-02-26T23:28:47.373Z,-2.50
2023-02-26T23:31:15.730Z,-2.40
2023-02-26T23:33:46.171Z,-2.20
2023-02-26T23:36:14.642Z,-2.10
2023-02-26T23:38:44.314Z,-2.20
2023-02-26T23:41:12.711Z,-2.10
2023-02-26T23:43:41.038Z,-2.30
2023-02-26T23:46:09.355Z,-2.20
2023-02-26T23:48:37.565Z,-2.30
2023-02-26T23:51:06.139Z,-2.40
2023-02-26T23:53:34.358Z,-2.50
2023-02-26T23:56:04.159Z,-2.50
2023-02-26T23:58:32.593Z,-2.60
